Map

Track Data

SID SEASON NUMBER BASIN SUBBASIN NAME ISO_TIME NATURE LAT LON WMO_WIND WMO_PRES WMO_AGENCY TRACK_TYPE DIST2LAND LANDFALL IFLAG USA_AGENCY USA_ATCF_ID USA_LAT USA_LON USA_RECORD USA_STATUS USA_WIND USA_PRES USA_SSHS USA_R34_NE USA_R34_SE USA_R34_SW USA_R34_NW USA_R50_NE USA_R50_SE USA_R50_SW USA_R50_NW USA_R64_NE USA_R64_SE USA_R64_SW USA_R64_NW USA_POCI USA_ROCI USA_RMW USA_EYE TOKYO_LAT TOKYO_LON TOKYO_GRADE TOKYO_WIND TOKYO_PRES TOKYO_R50_DIR TOKYO_R50_LONG TOKYO_R50_SHORT TOKYO_R30_DIR TOKYO_R30_LONG TOKYO_R30_SHORT TOKYO_LAND CMA_LAT CMA_LON CMA_CAT CMA_WIND CMA_PRES HKO_LAT HKO_LON HKO_CAT HKO_WIND HKO_PRES NEWDELHI_LAT NEWDELHI_LON NEWDELHI_GRADE NEWDELHI_WIND NEWDELHI_PRES NEWDELHI_CI NEWDELHI_DP NEWDELHI_POCI REUNION_LAT REUNION_LON REUNION_TYPE REUNION_WIND REUNION_PRES REUNION_TNUM REUNION_CI REUNION_RMW REUNION_R34_NE REUNION_R34_SE REUNION_R34_SW REUNION_R34_NW REUNION_R50_NE REUNION_R50_SE REUNION_R50_SW REUNION_R50_NW REUNION_R64_NE REUNION_R64_SE REUNION_R64_SW REUNION_R64_NW BOM_LAT BOM_LON BOM_TYPE BOM_WIND BOM_PRES BOM_TNUM BOM_CI BOM_RMW BOM_R34_NE BOM_R34_SE BOM_R34_SW BOM_R34_NW BOM_R50_NE BOM_R50_SE BOM_R50_SW BOM_R50_NW BOM_R64_NE BOM_R64_SE BOM_R64_SW BOM_R64_NW BOM_ROCI BOM_POCI BOM_EYE BOM_POS_METHOD BOM_PRES_METHOD NADI_LAT NADI_LON NADI_CAT NADI_WIND NADI_PRES WELLINGTON_LAT WELLINGTON_LON WELLINGTON_WIND WELLINGTON_PRES DS824_LAT DS824_LON DS824_STAGE DS824_WIND DS824_PRES TD9636_LAT TD9636_LON TD9636_STAGE TD9636_WIND TD9636_PRES TD9635_LAT TD9635_LON TD9635_WIND TD9635_PRES TD9635_ROCI NEUMANN_LAT NEUMANN_LON NEUMANN_CLASS NEUMANN_WIND NEUMANN_PRES MLC_LAT MLC_LON MLC_CLASS MLC_WIND MLC_PRES USA_GUST BOM_GUST BOM_GUST_PER REUNION_GUST REUNION_GUST_PER USA_SEAHGT USA_SEARAD_NE USA_SEARAD_SE USA_SEARAD_SW USA_SEARAD_NW STORM_SPEED STORM_DIR
1883295N28282 1883 31 NA NA NOT_NAMED 1883-10-22 00:00:00 TS 27.5000 -77.6000 40 hurdat_atl main 249 249 O_____________ hurdat_atl AL041883 27.5000 -77.6000 TS 40 0 3 0
1883295N28282 1883 31 NA NA NOT_NAMED 1883-10-22 03:00:00 TS 27.6500 -77.6049 main 257 257 P_____________ AL041883 27.6500 -77.6049 TS 40 0 3 0
1883295N28282 1883 31 NA NA NOT_NAMED 1883-10-22 06:00:00 TS 27.8000 -77.6000 40 hurdat_atl main 261 261 O_____________ hurdat_atl AL041883 27.8000 -77.6000 TS 40 0 3 0
1883295N28282 1883 31 NA NA NOT_NAMED 1883-10-22 09:00:00 TS 27.9625 -77.5851 main 270 270 P_____________ AL041883 27.9625 -77.5851 TS 40 0 4 0
1883295N28282 1883 31 NA NA NOT_NAMED 1883-10-22 12:00:00 TS 28.2000 -77.6000 40 hurdat_atl main 279 273 O_____________ hurdat_atl AL041883 28.2000 -77.6000 TS 40 0 6 350
1883295N28282 1883 31 NA NA NOT_NAMED 1883-10-22 15:00:00 TS 28.5550 -77.6997 main 273 265 P_____________ AL041883 28.5550 -77.6997 TS 40 0 8 347
1883295N28282 1883 31 NA NA NOT_NAMED 1883-10-22 18:00:00 TS 29.0000 -77.8000 40 hurdat_atl main 268 268 O_____________ hurdat_atl AL041883 29.0000 -77.8000 TS 40 0 9 353
1883295N28282 1883 31 NA NA NOT_NAMED 1883-10-22 21:00:00 TS 29.4850 -77.8300 main 285 285 P_____________ AL041883 29.4850 -77.8300 TS 40 0 10 1
1883295N28282 1883 31 NA NA NOT_NAMED 1883-10-23 00:00:00 TS 30.0000 -77.8000 40 hurdat_atl main 310 310 O_____________ hurdat_atl AL041883 30.0000 -77.8000 TS 40 0 10 4
1883295N28282 1883 31 NA NA NOT_NAMED 1883-10-23 03:00:00 TS 30.4999 -77.7447 main 319 280 P_____________ AL041883 30.4999 -77.7447 TS 40 0 10 10
1883295N28282 1883 31 NA NA NOT_NAMED 1883-10-23 06:00:00 TS 31.0000 -77.6000 40 hurdat_atl main 280 259 O_____________ hurdat_atl AL041883 31.0000 -77.6000 TS 40 0 10 19
1883295N28282 1883 31 NA NA NOT_NAMED 1883-10-23 09:00:00 TS 31.4623 -77.3664 main 251 231 P_____________ AL041883 31.4623 -77.3664 TS 40 0 11 27
1883295N28282 1883 31 NA NA NOT_NAMED 1883-10-23 12:00:00 TS 32.0000 -77.0000 40 hurdat_atl main 231 186 O_____________ hurdat_atl AL041883 32.0000 -77.0000 TS 40 0 14 28
1883295N28282 1883 31 NA NA NOT_NAMED 1883-10-23 15:00:00 TS 32.7109 -76.5828 main 186 141 P_____________ AL041883 32.7109 -76.5828 TS 40 0 18 32
1883295N28282 1883 31 NA NA NOT_NAMED 1883-10-23 18:00:00 TS 33.5000 -75.9000 40 hurdat_atl main 144 127 O_____________ hurdat_atl AL041883 33.5000 -75.9000 TS 40 0 22 44
1883295N28282 1883 31 NA NA NOT_NAMED 1883-10-23 21:00:00 TS 34.2891 -74.7848 main 152 152 P_____________ AL041883 34.2891 -74.7848 TS 45 0 25 53
1883295N28282 1883 31 NA NA NOT_NAMED 1883-10-24 00:00:00 TS 35.0000 -73.5000 50 hurdat_atl main 201 201 O_____________ hurdat_atl AL041883 35.0000 -73.5000 TS 50 0 23 57
1883295N28282 1883 31 NA NA NOT_NAMED 1883-10-24 03:00:00 TS 35.5354 -72.4039 main 281 281 P_____________ AL041883 35.5354 -72.4039 TS 50 0 20 61
1883295N28282 1883 31 NA NA NOT_NAMED 1883-10-24 06:00:00 TS 36.0000 -71.3000 50 hurdat_atl main 378 378 O_____________ hurdat_atl AL041883 36.0000 -71.3000 TS 50 0 21 63
1883295N28282 1883 31 NA NA NOT_NAMED 1883-10-24 09:00:00 TS 36.4994 -70.0713 main 483 483 P_____________ AL041883 36.4994 -70.0713 TS 50 0 22 64
1883295N28282 1883 31 NA NA NOT_NAMED 1883-10-24 12:00:00 TS 37.0000 -68.8000 50 hurdat_atl main 526 510 O_____________ hurdat_atl AL041883 37.0000 -68.8000 TS 50 0 22 64
1883295N28282 1883 31 NA NA NOT_NAMED 1883-10-24 15:00:00 TS 37.4835 -67.5549 main 510 508 P_____________ AL041883 37.4835 -67.5549 TS 50 0 22 63
1883295N28282 1883 31 NA NA NOT_NAMED 1883-10-24 18:00:00 TS 38.0000 -66.3000 50 hurdat_atl main 518 514 O_____________ hurdat_atl AL041883 38.0000 -66.3000 TS 50 0 23 61
1883295N28282 1883 31 NA NA NOT_NAMED 1883-10-24 21:00:00 TS 38.5918 -64.9921 main 545 494 P_____________ AL041883 38.5918 -64.9921 TS 50 0 24 59
1883295N28282 1883 31 NA NA NOT_NAMED 1883-10-25 00:00:00 ET 39.2000 -63.7000 50 hurdat_atl main 496 468 O_____________ hurdat_atl AL041883 39.2000 -63.7000 EX 50 -4 23 58
1883295N28282 1883 31 NA NA NOT_NAMED 1883-10-25 03:00:00 ET 39.7857 -62.4840 main 472 470 P_____________ AL041883 39.7857 -62.4840 EX 50 -4 21 59
1883295N28282 1883 31 NA NA NOT_NAMED 1883-10-25 06:00:00 ET 40.3000 -61.3000 50 hurdat_atl main 484 480 O_____________ hurdat_atl AL041883 40.3000 -61.3000 EX 50 -4 21 64
1883295N28282 1883 31 NA NA NOT_NAMED 1883-10-25 09:00:00 ET 40.6948 -60.0610 main 495 492 P_____________ AL041883 40.6948 -60.0610 EX 50 -4 19 69
1883295N28282 1883 31 NA NA NOT_NAMED 1883-10-25 12:00:00 ET 41.0000 -58.9000 50 hurdat_atl main 499 495 O_____________ hurdat_atl AL041883 41.0000 -58.9000 EX 50 -4 17 71
1883295N28282 1883 31 NA NA NOT_NAMED 1883-10-25 15:00:00 ET 41.2709 -57.9036 main 504 504 P_____________ AL041883 41.2709 -57.9036 EX 50 -4 15 71
1883295N28282 1883 31 NA NA NOT_NAMED 1883-10-25 18:00:00 ET 41.5000 -57.0000 50 hurdat_atl main 527 527 O_____________ hurdat_atl AL041883 41.5000 -57.0000 EX 50 -4 14 72
1883295N28282 1883 31 NA NA NOT_NAMED 1883-10-25 21:00:00 ET 41.7141 -56.0919 main 553 537 P_____________ AL041883 41.7141 -56.0919 EX 55 -4 14 73
1883295N28282 1883 31 NA NA NOT_NAMED 1883-10-26 00:00:00 ET 41.9000 -55.2000 60 hurdat_atl main 537 515 O_____________ hurdat_atl AL041883 41.9000 -55.2000 EX 60 -4 13 77
1883295N28282 1883 31 NA NA NOT_NAMED 1883-10-26 03:00:00 ET 42.0170 -54.3787 main 515 489 P_____________ AL041883 42.0170 -54.3787 EX 60 -4 14 77
1883295N28282 1883 31 NA NA NOT_NAMED 1883-10-26 06:00:00 ET 42.2000 -53.4000 60 hurdat_atl main 489 459 O_____________ hurdat_atl AL041883 42.2000 -53.4000 EX 60 -4 17 72
1883295N28282 1883 31 NA NA NOT_NAMED 1883-10-26 09:00:00 ET 42.5431 -52.1495 main 463 445 P_____________ AL041883 42.5431 -52.1495 EX 60 -4 23 69
1883295N28282 1883 31 NA NA NOT_NAMED 1883-10-26 12:00:00 ET 43.0000 -50.5000 60 hurdat_atl main 452 452 O_____________ hurdat_atl AL041883 43.0000 -50.5000 EX 60 -4 28 72
1883295N28282 1883 31 NA NA NOT_NAMED 1883-10-26 15:00:00 ET 43.4295 -48.4424 main 517 515 P_____________ AL041883 43.4295 -48.4424 EX 60 -4 34 73
1883295N28282 1883 31 NA NA NOT_NAMED 1883-10-26 18:00:00 ET 44.0000 -46.0000 60 hurdat_atl main 626 626 O_____________ hurdat_atl AL041883 44.0000 -46.0000 EX 60 -4 39 70
1883295N28282 1883 31 NA NA NOT_NAMED 1883-10-26 21:00:00 ET 44.7969 -43.2835 main 773 773 P_____________ AL041883 44.7969 -43.2835 EX 65 -4 43 67
1883295N28282 1883 31 NA NA NOT_NAMED 1883-10-27 00:00:00 ET 45.7000 -40.4000 70 hurdat_atl main 948 948 O_____________ hurdat_atl AL041883 45.7000 -40.4000 EX 70 -4 44 66
1883295N28282 1883 31 NA NA NOT_NAMED 1883-10-27 03:00:00 ET 46.5547 -37.5360 main 1141 1141 P_____________ AL041883 46.5547 -37.5360 EX 70 -4 42 66
1883295N28282 1883 31 NA NA NOT_NAMED 1883-10-27 06:00:00 ET 47.4000 -34.8000 70 hurdat_atl main 1329 1329 O_____________ hurdat_atl AL041883 47.4000 -34.8000 EX 70 -4 40 65
1883295N28282 1883 31 NA NA NOT_NAMED 1883-10-27 09:00:00 ET 48.2202 -32.2031 main 1491 1415 P_____________ AL041883 48.2202 -32.2031 EX 70 -4 36 63
1883295N28282 1883 31 NA NA NOT_NAMED 1883-10-27 12:00:00 ET 49.0000 -30.0000 70 hurdat_atl main 1408 1273 O_____________ hurdat_atl AL041883 49.0000 -30.0000 EX 70 -4 29 60
1883295N28282 1883 31 NA NA NOT_NAMED 1883-10-27 15:00:00 ET 49.7069 -28.3395 main 1266 1162 P_____________ AL041883 49.7069 -28.3395 EX 70 -4 24 54
1883295N28282 1883 31 NA NA NOT_NAMED 1883-10-27 18:00:00 ET 50.4000 -27.0000 70 hurdat_atl main 1155 1041 O_____________ hurdat_atl AL041883 50.4000 -27.0000 EX 70 -4 23 51
1883295N28282 1883 31 NA NA NOT_NAMED 1883-10-27 21:00:00 ET 51.1132 -25.5672 main 1041 940 P_____________ AL041883 51.1132 -25.5672 EX 65 -4 22 51
1883295N28282 1883 31 NA NA NOT_NAMED 1883-10-28 00:00:00 ET 51.8000 -24.2000 60 hurdat_atl main 933 846 O_____________ hurdat_atl AL041883 51.8000 -24.2000 EX 60 -4 21 52
1883295N28282 1883 31 NA NA NOT_NAMED 1883-10-28 03:00:00 ET 52.3980 -22.8782 main 839 758 P_____________ AL041883 52.3980 -22.8782 EX 60 -4 20 53
1883295N28282 1883 31 NA NA NOT_NAMED 1883-10-28 06:00:00 ET 53.0000 -21.6000 60 hurdat_atl main 752 670 O_____________ hurdat_atl AL041883 53.0000 -21.6000 EX 60 -4 20 50
1883295N28282 1883 31 NA NA NOT_NAMED 1883-10-28 09:00:00 ET 53.6988 -20.2913 main 663 580 P_____________ AL041883 53.6988 -20.2913 EX 60 -4 21 48
1883295N28282 1883 31 NA NA NOT_NAMED 1883-10-28 12:00:00 ET 54.4000 -19.0000 60 hurdat_atl main 574 500 O_____________ hurdat_atl AL041883 54.4000 -19.0000 EX 60 -4 20 48
1883295N28282 1883 31 NA NA NOT_NAMED 1883-10-28 15:00:00 ET 55.0273 -17.7452 main 494 437 P_____________ AL041883 55.0273 -17.7452 EX 60 -4 19 50
1883295N28282 1883 31 NA NA NOT_NAMED 1883-10-28 18:00:00 ET 55.6000 -16.5000 60 hurdat_atl main 435 O_____________ hurdat_atl AL041883 55.6000 -16.5000 EX 60 -4 18 51

About IBTrACS Database

This database is a web-friendly format of International Best Track Archive for Climate Stewardship (IBTrACS), a global best track data archive curated by NOAA dating back to 1842.

Updated: 2021-10-21